Terminal Aerodrome Forecast
Issued by NWS Sioux Falls, SD

Home | Current Version | Previous Version | Graphics & Text | Print | Product List | Glossary On
Versions: 1 2 3 4 5 6 7 8 9 10 11 12 13 14 15 16 17 18
000
FTUS43 KFSD 212344
TAFFSD
TAF
KFSD 212344Z 2200/2224 19011KT P6SM BKN150
     FM221000 19005KT 3SM BR SCT003 BKN005
     FM221400 19006KT P6SM SCT005
     FM221800 17010KT P6SM SCT200=

USA.gov is the U.S. government's official web portal to all federal, state and local government web resources and services.